createdAt,value
2023-04-18T00:02:23.197Z,97.93
2023-04-18T00:04:57.937Z,94.57
2023-04-18T00:07:29.346Z,92.43
2023-04-18T00:09:58.353Z,90.09
2023-04-18T00:12:27.937Z,89.65
2023-04-18T00:14:54.517Z,88.80
2023-04-18T00:17:29.169Z,87.72
2023-04-18T00:19:56.359Z,86.86
2023-04-18T00:22:26.958Z,85.16
2023-04-18T00:24:53.361Z,83.36
2023-04-18T00:27:20.498Z,82.18
2023-04-18T00:29:49.754Z,81.72
2023-04-18T00:32:19.752Z,79.17
2023-04-18T00:34:46.308Z,76.88
2023-04-18T00:37:15.569Z,75.90
2023-04-18T00:39:41.874Z,75.45
2023-04-18T00:42:08.230Z,73.77
2023-04-18T00:44:39.238Z,73.20
2023-04-18T00:47:08.399Z,73.00
2023-04-18T00:49:34.797Z,72.00
2023-04-18T00:52:03.943Z,71.84
2023-04-18T00:54:30.514Z,71.33
2023-04-18T00:56:56.978Z,71.99
2023-04-18T00:59:28.238Z,72.49
2023-04-18T01:01:54.814Z,72.12
2023-04-18T01:04:21.527Z,73.37
2023-04-18T01:06:56.473Z,74.10
2023-04-18T01:09:24.595Z,75.25
2023-04-18T01:11:54.432Z,75.79
2023-04-18T01:14:24.044Z,75.88
2023-04-18T01:16:50.469Z,76.15
2023-04-18T01:19:19.666Z,76.04
2023-04-18T01:21:46.085Z,75.84
2023-04-18T01:24:41.357Z,74.87
2023-04-18T01:27:13.436Z,74.75
2023-04-18T01:29:46.515Z,74.47
2023-04-18T01:32:12.914Z,74.55
2023-04-18T01:34:39.268Z,74.29
2023-04-18T01:39:47.710Z,73.87
2023-04-18T01:42:16.744Z,73.64
2023-04-18T01:44:43.313Z,73.91
2023-04-18T01:47:12.754Z,74.29
2023-04-18T01:49:46.671Z,74.16
2023-04-18T01:52:18.888Z,74.30
2023-04-18T01:54:45.277Z,73.96
2023-04-18T01:57:11.630Z,73.72
2023-04-18T01:59:40.346Z,74.21
2023-04-18T02:02:11.177Z,74.20
2023-04-18T02:04:39.801Z,74.26
2023-04-18T02:07:07.801Z,74.14
2023-04-18T02:09:34.162Z,74.09
2023-04-18T02:12:09.934Z,74.19
2023-04-18T02:14:36.502Z,74.31
2023-04-18T02:17:02.966Z,74.20
2023-04-18T02:19:32.692Z,74.33
2023-04-18T02:22:01.067Z,74.32
2023-04-18T02:24:27.489Z,74.57
2023-04-18T02:27:07.106Z,75.17
2023-04-18T02:29:37.436Z,74.81
2023-04-18T02:32:07.160Z,75.02
2023-04-18T02:34:33.742Z,75.29
2023-04-18T02:37:04.452Z,75.16
2023-04-18T02:39:31.324Z,75.49
2023-04-18T02:41:58.630Z,75.61
2023-04-18T02:44:28.096Z,75.45
2023-04-18T02:46:54.677Z,75.85
2023-04-18T02:49:21.113Z,75.97
2023-04-18T02:51:58.756Z,75.85
2023-04-18T02:54:25.257Z,76.18
2023-04-18T02:57:04.352Z,75.93
2023-04-18T02:59:37.940Z,75.68
2023-04-18T03:02:09.082Z,75.91
2023-04-18T03:04:35.638Z,76.16
2023-04-18T03:07:02.494Z,76.27
2023-04-18T03:09:32.345Z,75.90
2023-04-18T03:11:58.677Z,76.13
2023-04-18T03:14:31.122Z,76.14
2023-04-18T03:16:57.580Z,76.26
2023-04-18T03:19:26.433Z,76.61
2023-04-18T03:21:55.654Z,76.62
2023-04-18T03:24:22.004Z,76.57
2023-04-18T03:26:50.727Z,76.79
2023-04-18T03:29:20.356Z,76.81
2023-04-18T03:31:47.005Z,76.92
2023-04-18T03:34:13.938Z,77.10
2023-04-18T03:36:45.886Z,76.97
2023-04-18T03:41:56.997Z,76.85
2023-04-18T03:44:23.481Z,77.00
2023-04-18T03:46:50.250Z,77.21
2023-04-18T03:49:16.624Z,77.10
2023-04-18T03:51:53.019Z,77.37
2023-04-18T03:54:19.394Z,77.58
2023-04-18T03:56:54.813Z,77.56
2023-04-18T03:59:21.156Z,77.77
2023-04-18T04:02:00.950Z,77.94
2023-04-18T04:04:28.727Z,78.02
2023-04-18T04:06:55.821Z,77.60
2023-04-18T04:09:22.277Z,77.84
2023-04-18T04:11:48.659Z,77.71
2023-04-18T04:14:19.974Z,77.80
2023-04-18T04:16:46.486Z,77.69
2023-04-18T04:19:12.945Z,77.58
2023-04-18T04:21:44.344Z,77.86
2023-04-18T04:24:10.741Z,78.03
2023-04-18T04:26:37.222Z,78.24
2023-04-18T04:29:14.107Z,78.36
2023-04-18T04:31:40.569Z,78.67
2023-04-18T04:34:09.133Z,78.71
2023-04-18T04:36:39.730Z,79.32
2023-04-18T04:39:08.619Z,79.02
2023-04-18T04:41:40.919Z,79.24
2023-04-18T04:44:07.325Z,79.17
2023-04-18T04:46:46.555Z,79.61
2023-04-18T04:49:17.084Z,79.42
2023-04-18T04:51:46.319Z,79.76
2023-04-18T04:54:13.007Z,80.08
2023-04-18T04:56:43.778Z,80.13
2023-04-18T04:59:13.067Z,80.17
2023-04-18T05:01:42.095Z,80.36
2023-04-18T05:04:08.966Z,80.66
2023-04-18T05:06:35.553Z,80.84
2023-04-18T05:09:01.957Z,81.11
2023-04-18T05:11:32.818Z,81.12
2023-04-18T05:13:59.648Z,81.27
2023-04-18T05:16:26.486Z,81.35
2023-04-18T05:19:02.317Z,81.45
2023-04-18T05:21:29.628Z,81.62
2023-04-18T05:24:00.199Z,81.66
2023-04-18T05:26:26.896Z,82.18
2023-04-18T05:28:53.337Z,82.43
2023-04-18T05:34:03.386Z,83.10
2023-04-18T05:36:32.648Z,82.98
2023-04-18T05:38:58.992Z,83.32
2023-04-18T05:41:29.996Z,83.40
2023-04-18T05:44:04.692Z,84.00
2023-04-18T05:46:43.066Z,83.75
2023-04-18T05:51:56.697Z,84.01
2023-04-18T05:54:27.447Z,84.88
2023-04-18T05:56:57.515Z,84.76
2023-04-18T05:59:27.190Z,84.89
2023-04-18T06:01:56.334Z,84.99
2023-04-18T06:04:22.884Z,85.20
2023-04-18T06:06:49.428Z,84.95
2023-04-18T06:09:15.830Z,84.69
2023-04-18T06:11:42.546Z,84.69
2023-04-18T06:14:08.980Z,84.61
2023-04-18T06:16:37.338Z,84.95
2023-04-18T06:19:09.811Z,84.93
2023-04-18T06:21:37.949Z,85.08
2023-04-18T06:24:04.405Z,84.02
2023-04-18T06:26:35.307Z,83.82
2023-04-18T06:29:01.693Z,83.27
2023-04-18T06:31:28.113Z,83.76
2023-04-18T06:34:08.060Z,81.84
2023-04-18T06:36:34.478Z,82.19
2023-04-18T06:39:11.013Z,81.78
2023-04-18T06:41:37.460Z,81.70
2023-04-18T06:44:09.296Z,80.84
2023-04-18T06:46:35.718Z,79.63
2023-04-18T06:49:08.446Z,80.90
2023-04-18T06:51:34.799Z,80.02
2023-04-18T06:54:01.501Z,80.01
2023-04-18T06:56:34.452Z,79.22
2023-04-18T06:59:02.658Z,79.58
2023-04-18T07:01:36.313Z,79.54
2023-04-18T07:04:02.730Z,79.27
2023-04-18T07:06:31.928Z,79.80
2023-04-18T07:09:03.647Z,80.01
2023-04-18T07:11:30.059Z,79.99
2023-04-18T07:14:00.709Z,79.65
2023-04-18T07:16:30.228Z,80.14
2023-04-18T07:18:56.645Z,80.21
2023-04-18T07:21:26.651Z,80.20
2023-04-18T07:23:56.166Z,79.89
2023-04-18T07:26:30.313Z,80.95
2023-04-18T07:28:56.736Z,80.63
2023-04-18T07:31:28.359Z,80.44
2023-04-18T07:34:02.205Z,79.81
2023-04-18T07:36:35.349Z,79.09
2023-04-18T07:39:01.743Z,78.85
2023-04-18T07:41:28.122Z,78.74
2023-04-18T07:43:54.864Z,77.74
2023-04-18T07:46:21.289Z,77.15
2023-04-18T07:48:47.715Z,76.68
2023-04-18T07:51:14.113Z,75.22
2023-04-18T07:53:41.106Z,74.82
2023-04-18T07:56:10.462Z,74.30
2023-04-18T07:58:36.806Z,74.69
2023-04-18T08:01:09.246Z,74.25
2023-04-18T08:03:38.764Z,74.01
2023-04-18T08:06:10.471Z,74.51
2023-04-18T08:08:39.901Z,71.47
2023-04-18T08:11:06.371Z,71.27
2023-04-18T08:13:42.297Z,71.38
2023-04-18T08:16:08.834Z,72.22
2023-04-18T08:18:35.921Z,69.75
2023-04-18T08:21:04.804Z,70.98
2023-04-18T08:23:31.253Z,70.95
2023-04-18T08:26:04.178Z,69.94
2023-04-18T08:28:30.583Z,69.71
2023-04-18T08:30:57.006Z,70.01
2023-04-18T08:33:46.500Z,69.46
2023-04-18T08:36:15.871Z,70.12
2023-04-18T08:38:42.280Z,70.01
2023-04-18T08:41:12.661Z,70.43
2023-04-18T08:43:39.033Z,70.05
2023-04-18T08:46:05.622Z,71.14
2023-04-18T08:48:32.488Z,71.11
2023-04-18T08:51:06.791Z,70.95
2023-04-18T08:53:34.223Z,70.94
2023-04-18T08:56:01.562Z,71.29
2023-04-18T08:58:32.162Z,70.39
2023-04-18T09:01:08.027Z,70.52
2023-04-18T09:03:43.510Z,69.08
2023-04-18T09:06:19.371Z,70.10
2023-04-18T09:08:59.035Z,69.44
2023-04-18T09:11:29.857Z,68.82
2023-04-18T09:13:58.633Z,69.04
2023-04-18T09:16:30.430Z,70.16
2023-04-18T09:19:22.722Z,69.46
2023-04-18T09:22:04.728Z,67.88
2023-04-18T09:24:31.935Z,68.45
2023-04-18T09:27:16.677Z,68.43
2023-04-18T09:29:49.430Z,68.71
2023-04-18T09:32:27.571Z,68.96
2023-04-18T09:35:01.369Z,69.57
2023-04-18T09:37:32.159Z,68.74
2023-04-18T09:40:02.632Z,67.76
2023-04-18T09:42:36.112Z,67.28
2023-04-18T09:45:15.411Z,66.75
2023-04-18T09:47:41.939Z,66.73
2023-04-18T09:50:10.735Z,64.97
2023-04-18T09:52:42.181Z,65.04
2023-04-18T09:58:25.232Z,65.11
2023-04-18T10:01:05.582Z,64.89
2023-04-18T10:03:39.958Z,65.06
2023-04-18T10:06:07.781Z,65.89
2023-04-18T10:08:36.823Z,65.82
2023-04-18T10:11:09.674Z,65.24
2023-04-18T10:13:41.528Z,65.42
2023-04-18T10:16:11.976Z,66.58
2023-04-18T10:18:38.688Z,67.51
2023-04-18T10:21:08.295Z,66.95
2023-04-18T10:23:39.445Z,66.93
2023-04-18T10:26:22.424Z,67.21
2023-04-18T10:29:14.847Z,66.09
2023-04-18T10:31:41.361Z,67.01
2023-04-18T10:34:07.927Z,66.11
2023-04-18T10:36:34.430Z,65.84
2023-04-18T10:39:05.730Z,64.94
2023-04-18T10:41:33.725Z,63.33
2023-04-18T10:44:09.512Z,62.04
2023-04-18T10:46:52.796Z,62.51
2023-04-18T10:49:33.178Z,60.73
2023-04-18T10:52:00.994Z,60.77
2023-04-18T10:54:59.142Z,61.25
2023-04-18T11:00:28.104Z,58.65
2023-04-18T11:02:59.836Z,59.40
2023-04-18T11:08:25.084Z,60.80
2023-04-18T11:11:08.925Z,61.08
2023-04-18T11:14:04.284Z,61.51
2023-04-18T11:17:02.017Z,61.29
2023-04-18T11:19:28.366Z,61.28
2023-04-18T11:22:14.816Z,61.98
2023-04-18T11:24:59.797Z,62.44
2023-04-18T11:27:32.030Z,62.30
2023-04-18T11:29:58.432Z,62.79
2023-04-18T11:32:27.900Z,63.01
2023-04-18T11:34:57.784Z,63.74
2023-04-18T11:37:24.195Z,63.34
2023-04-18T11:39:54.105Z,63.69
2023-04-18T11:42:35.912Z,63.85
2023-04-18T11:45:23.144Z,63.43
2023-04-18T11:47:55.229Z,63.41
2023-04-18T11:50:21.681Z,63.09
2023-04-18T11:52:51.088Z,63.09
2023-04-18T11:55:38.529Z,63.78
2023-04-18T11:58:10.909Z,63.97
2023-04-18T12:00:42.180Z,63.73
2023-04-18T12:03:16.753Z,63.65
2023-04-18T12:05:44.330Z,63.33
2023-04-18T12:08:20.909Z,63.31
2023-04-18T12:10:52.525Z,62.92
2023-04-18T12:13:25.728Z,62.63
2023-04-18T12:16:14.849Z,61.68
2023-04-18T12:18:47.196Z,62.00
2023-04-18T12:21:19.862Z,61.64
2023-04-18T12:23:50.453Z,62.11
2023-04-18T12:26:28.095Z,62.13
2023-04-18T12:28:57.039Z,61.89
2023-04-18T12:31:29.328Z,61.90
2023-04-18T12:33:55.704Z,61.98
2023-04-18T12:36:27.349Z,61.21
2023-04-18T12:38:53.877Z,62.13
2023-04-18T12:41:20.745Z,62.16
2023-04-18T12:44:00.341Z,62.09
2023-04-18T12:46:28.293Z,62.24
2023-04-18T12:49:00.561Z,62.45
2023-04-18T12:51:32.485Z,62.72
2023-04-18T12:54:02.986Z,62.67
2023-04-18T12:56:29.443Z,63.20
2023-04-18T12:58:59.534Z,63.62
2023-04-18T13:01:29.169Z,63.93
2023-04-18T13:04:11.985Z,64.29
2023-04-18T13:06:45.207Z,65.02
2023-04-18T13:09:12.031Z,64.87
2023-04-18T13:11:38.539Z,65.25
2023-04-18T13:14:14.951Z,65.56
2023-04-18T13:16:43.498Z,65.61
2023-04-18T13:19:15.825Z,65.55
2023-04-18T13:21:42.387Z,65.81
2023-04-18T13:24:11.102Z,65.69
2023-04-18T13:26:39.969Z,65.68
2023-04-18T13:29:06.312Z,64.98
2023-04-18T13:31:39.579Z,64.71
2023-04-18T13:34:06.013Z,64.47
2023-04-18T13:36:37.344Z,64.39
2023-04-18T13:39:10.606Z,64.14
2023-04-18T13:44:26.046Z,64.24
2023-04-18T13:46:52.918Z,63.12
2023-04-18T13:49:19.384Z,63.25
2023-04-18T13:51:49.097Z,63.01
2023-04-18T13:54:19.900Z,63.04
2023-04-18T13:56:47.854Z,63.29
2023-04-18T13:59:15.041Z,62.35
2023-04-18T14:01:42.730Z,61.65
2023-04-18T14:04:09.220Z,61.54
2023-04-18T14:06:38.825Z,60.90
2023-04-18T14:09:06.780Z,59.89
2023-04-18T14:11:41.768Z,60.21
2023-04-18T14:14:08.156Z,60.09
2023-04-18T14:16:34.669Z,58.03
2023-04-18T14:19:07.016Z,58.28
2023-04-18T14:21:37.539Z,57.97
2023-04-18T14:24:14.133Z,58.46
2023-04-18T14:26:40.501Z,58.59
2023-04-18T14:29:17.499Z,59.55
2023-04-18T14:31:44.014Z,59.69
2023-04-18T14:36:55.861Z,60.24
2023-04-18T14:39:25.172Z,60.24
2023-04-18T14:41:51.858Z,59.86
2023-04-18T14:44:21.023Z,60.06
2023-04-18T14:46:47.508Z,60.10
2023-04-18T14:49:14.215Z,60.00
2023-04-18T14:51:44.486Z,59.71
2023-04-18T14:54:10.921Z,59.00
2023-04-18T14:56:37.339Z,59.35
2023-04-18T14:59:04.506Z,59.26
2023-04-18T15:01:31.177Z,59.10
2023-04-18T15:04:03.521Z,59.56
2023-04-18T15:06:33.310Z,59.02
2023-04-18T15:08:59.858Z,58.60
2023-04-18T15:11:27.481Z,58.10
2023-04-18T15:13:54.205Z,57.78
2023-04-18T15:16:24.314Z,57.74
2023-04-18T15:18:50.763Z,58.05
2023-04-18T15:21:19.438Z,58.47
2023-04-18T15:23:49.151Z,58.46
2023-04-18T15:26:17.873Z,57.84
2023-04-18T15:28:54.421Z,57.73
2023-04-18T15:31:24.379Z,57.85
2023-04-18T15:33:54.899Z,57.63
2023-04-18T15:36:21.300Z,57.08
2023-04-18T15:38:57.541Z,57.45
2023-04-18T15:41:24.021Z,57.25
2023-04-18T15:43:58.326Z,56.42
2023-04-18T15:46:24.737Z,56.62
2023-04-18T15:48:52.376Z,56.40
2023-04-18T15:51:18.844Z,56.33
2023-04-18T15:53:45.359Z,56.79
2023-04-18T15:56:12.008Z,56.58
2023-04-18T15:58:46.813Z,56.72
2023-04-18T16:01:16.096Z,56.65
2023-04-18T16:03:45.243Z,56.83
2023-04-18T16:06:15.666Z,56.85
2023-04-18T16:14:19.045Z,56.82
2023-04-18T16:16:53.161Z,55.91
2023-04-18T16:19:22.086Z,55.67
2023-04-18T16:21:50.037Z,56.39
2023-04-18T16:24:22.733Z,56.70
2023-04-18T16:26:49.245Z,57.68
2023-04-18T16:29:20.809Z,57.60
2023-04-18T16:31:47.617Z,57.36
2023-04-18T16:34:23.090Z,57.29
2023-04-18T16:36:51.139Z,57.73
2023-04-18T16:39:20.737Z,57.60
2023-04-18T16:41:47.588Z,58.05
2023-04-18T16:44:14.112Z,57.67
2023-04-18T16:46:40.777Z,57.37
2023-04-18T16:49:15.449Z,58.07
2023-04-18T16:51:41.856Z,57.78
2023-04-18T16:54:12.267Z,58.31
2023-04-18T16:56:44.508Z,58.14
2023-04-18T16:59:16.604Z,58.35
2023-04-18T17:01:45.855Z,58.94
2023-04-18T17:04:12.741Z,58.75
2023-04-18T17:06:47.181Z,58.93
2023-04-18T17:09:14.519Z,59.48
2023-04-18T17:11:44.385Z,59.02
2023-04-18T17:14:11.559Z,58.56
2023-04-18T17:16:46.826Z,58.58
2023-04-18T17:19:16.519Z,58.82
2023-04-18T17:21:44.354Z,59.26
2023-04-18T17:24:11.840Z,59.60
2023-04-18T17:26:38.829Z,60.03
2023-04-18T17:29:05.341Z,60.17
2023-04-18T17:31:41.533Z,60.68
2023-04-18T17:34:07.889Z,60.89
2023-04-18T17:36:39.465Z,61.16
2023-04-18T17:39:06.507Z,61.28
2023-04-18T17:41:39.104Z,61.39
2023-04-18T17:44:10.248Z,61.62
2023-04-18T17:46:39.013Z,62.13
2023-04-18T17:49:34.258Z,62.03
2023-04-18T17:52:08.344Z,62.18
2023-04-18T17:54:34.754Z,61.77
2023-04-18T17:57:02.662Z,62.02
2023-04-18T17:59:37.470Z,61.99
2023-04-18T18:02:05.085Z,62.17
2023-04-18T18:04:43.329Z,62.30
2023-04-18T18:07:10.233Z,62.24
2023-04-18T18:09:43.182Z,62.34
2023-04-18T18:12:12.575Z,62.63
2023-04-18T18:14:40.566Z,62.92
2023-04-18T18:17:07.088Z,63.60
2023-04-18T18:19:43.622Z,63.68
2023-04-18T18:22:10.238Z,64.00
2023-04-18T18:24:36.635Z,63.92
2023-04-18T18:27:08.653Z,64.29
2023-04-18T18:29:35.154Z,64.34
2023-04-18T18:32:01.501Z,64.26
2023-04-18T18:34:32.006Z,64.67
2023-04-18T18:36:58.538Z,65.08
2023-04-18T18:39:24.918Z,65.50
2023-04-18T18:41:54.511Z,65.88
2023-04-18T18:44:23.871Z,66.25
2023-04-18T18:46:50.584Z,66.51
2023-04-18T18:49:29.005Z,66.29
2023-04-18T18:51:58.549Z,66.73
2023-04-18T18:54:29.325Z,66.95
2023-04-18T18:56:55.892Z,67.45
2023-04-18T18:59:26.898Z,67.68
2023-04-18T19:01:53.456Z,68.01
2023-04-18T19:04:20.293Z,68.31
2023-04-18T19:06:51.144Z,68.51
2023-04-18T19:09:17.526Z,69.02
2023-04-18T19:11:44.050Z,69.28
2023-04-18T19:14:13.999Z,69.55
2023-04-18T19:16:43.481Z,69.68
2023-04-18T19:19:17.858Z,69.77
2023-04-18T19:21:46.050Z,69.32
2023-04-18T19:24:20.611Z,69.18
2023-04-18T19:26:47.093Z,69.12
2023-04-18T19:29:14.258Z,69.21
2023-04-18T19:31:43.822Z,69.22
2023-04-18T19:34:13.698Z,69.32
2023-04-18T19:36:41.223Z,69.60
2023-04-18T19:39:13.712Z,69.79
2023-04-18T19:41:41.568Z,69.86
2023-04-18T19:44:09.531Z,70.36
2023-04-18T19:46:39.153Z,70.67
2023-04-18T19:49:05.758Z,70.76
2023-04-18T19:51:34.908Z,71.11
2023-04-18T19:54:04.724Z,71.28
2023-04-18T19:56:33.907Z,71.51
2023-04-18T19:59:00.738Z,71.72
2023-04-18T20:01:27.286Z,71.79
2023-04-18T20:03:57.680Z,71.90
2023-04-18T20:06:29.197Z,71.88
2023-04-18T20:08:55.679Z,72.64
2023-04-18T20:11:26.920Z,72.32
2023-04-18T20:13:56.547Z,72.50
2023-04-18T20:16:30.156Z,72.63
2023-04-18T20:19:01.577Z,72.71
2023-04-18T20:21:37.321Z,72.87
2023-04-18T20:24:03.768Z,72.95
2023-04-18T20:29:14.903Z,73.54
2023-04-18T20:31:44.682Z,73.64
2023-04-18T20:34:11.206Z,73.73
2023-04-18T20:36:47.036Z,73.93
2023-04-18T20:39:13.872Z,73.87
2023-04-18T20:41:53.864Z,73.92
2023-04-18T20:44:26.197Z,74.02
2023-04-18T20:46:55.523Z,74.15
2023-04-18T20:52:10.846Z,74.75
2023-04-18T20:54:37.277Z,74.60
2023-04-18T20:57:03.765Z,74.83
2023-04-18T20:59:30.801Z,74.99
2023-04-18T21:01:57.307Z,74.87
2023-04-18T21:04:24.638Z,75.04
2023-04-18T21:06:51.156Z,74.98
2023-04-18T21:09:20.776Z,75.22
2023-04-18T21:11:47.174Z,75.10
2023-04-18T21:14:13.795Z,75.27
2023-04-18T21:16:41.359Z,75.38
2023-04-18T21:19:10.793Z,75.41
2023-04-18T21:21:37.234Z,75.30
2023-04-18T21:24:08.888Z,75.41
2023-04-18T21:26:38.511Z,75.44
2023-04-18T21:29:07.489Z,75.63
2023-04-18T21:31:37.529Z,75.87
2023-04-18T21:34:05.367Z,75.98
2023-04-18T21:36:34.950Z,76.11
2023-04-18T21:39:04.257Z,76.52
2023-04-18T21:41:33.257Z,76.52
2023-04-18T21:43:59.963Z,76.63
2023-04-18T21:46:29.534Z,76.69
2023-04-18T21:48:58.685Z,77.06
2023-04-18T21:51:25.185Z,77.29
2023-04-18T21:53:52.248Z,77.31
2023-04-18T21:56:18.686Z,77.28
2023-04-18T21:58:47.958Z,77.33
2023-04-18T22:01:17.506Z,77.44
2023-04-18T22:03:44.165Z,78.02
2023-04-18T22:06:13.825Z,77.93
2023-04-18T22:08:41.927Z,78.64
2023-04-18T22:11:14.107Z,78.39
2023-04-18T22:13:44.692Z,78.75
2023-04-18T22:16:19.011Z,79.06
2023-04-18T22:18:51.325Z,79.29
2023-04-18T22:21:20.337Z,79.17
2023-04-18T22:23:49.786Z,79.63
2023-04-18T22:26:16.220Z,80.02
2023-04-18T22:28:42.905Z,80.14
2023-04-18T22:31:16.467Z,80.73
2023-04-18T22:36:26.831Z,81.30
2023-04-18T22:38:53.279Z,80.92
2023-04-18T22:41:23.646Z,81.33
2023-04-18T22:43:55.428Z,81.70
2023-04-18T22:46:22.655Z,81.96
2023-04-18T22:48:49.491Z,81.80
2023-04-18T22:51:18.363Z,82.45
2023-04-18T22:53:47.477Z,82.69
2023-04-18T22:56:13.819Z,82.66
2023-04-18T22:58:44.075Z,83.39
2023-04-18T23:01:10.613Z,83.66
2023-04-18T23:03:37.228Z,84.31
2023-04-18T23:06:07.630Z,84.00
2023-04-18T23:08:36.776Z,84.60
2023-04-18T23:11:10.610Z,84.26
2023-04-18T23:13:37.010Z,84.58
2023-04-18T23:16:03.487Z,85.01
2023-04-18T23:18:34.068Z,85.42
2023-04-18T23:21:03.624Z,85.34
2023-04-18T23:23:30.038Z,85.66
2023-04-18T23:25:58.876Z,86.23
2023-04-18T23:28:28.153Z,86.79
2023-04-18T23:31:00.042Z,87.09
2023-04-18T23:33:29.539Z,87.18
2023-04-18T23:35:55.992Z,86.76
2023-04-18T23:38:25.198Z,87.24
2023-04-18T23:40:54.287Z,87.74
2023-04-18T23:43:20.867Z,88.24
2023-04-18T23:45:50.597Z,88.32
2023-04-18T23:48:16.910Z,88.52
2023-04-18T23:50:52.461Z,88.97
2023-04-18T23:53:22.686Z,89.45
2023-04-18T23:58:33.619Z,89.75
